createdAt,value
2023-03-19T00:01:39.055Z,11.70
2023-03-19T00:04:09.714Z,11.70
2023-03-19T00:06:38.768Z,11.60
2023-03-19T00:09:06.863Z,11.60
2023-03-19T00:11:34.231Z,11.60
2023-03-19T00:14:02.560Z,11.70
2023-03-19T00:16:29.549Z,11.70
2023-03-19T00:18:57.534Z,11.70
2023-03-19T00:21:26.206Z,11.60
2023-03-19T00:23:53.767Z,11.70
2023-03-19T00:26:22.118Z,11.60
2023-03-19T00:28:50.302Z,11.60
2023-03-19T00:31:19.256Z,11.70
2023-03-19T00:33:49.235Z,11.60
2023-03-19T00:36:19.244Z,11.50
2023-03-19T00:38:47.516Z,11.60
2023-03-19T00:41:17.646Z,11.60
2023-03-19T00:43:47.102Z,11.60
2023-03-19T00:46:15.891Z,11.60
2023-03-19T00:48:45.623Z,11.60
2023-03-19T00:51:12.647Z,11.60
2023-03-19T00:53:44.163Z,11.60
2023-03-19T00:56:13.237Z,11.60
2023-03-19T00:58:43.694Z,11.50
2023-03-19T01:01:14.265Z,11.50
2023-03-19T01:03:43.071Z,11.50
2023-03-19T01:06:13.848Z,11.50
2023-03-19T01:08:42.482Z,11.50
2023-03-19T01:11:15.120Z,11.40
2023-03-19T01:13:42.424Z,11.40
2023-03-19T01:16:10.068Z,11.40
2023-03-19T01:18:37.852Z,11.50
2023-03-19T01:21:08.404Z,11.40
2023-03-19T01:23:42.578Z,11.40
2023-03-19T01:26:09.653Z,11.30
2023-03-19T01:28:36.694Z,11.40
2023-03-19T01:31:08.971Z,11.40
2023-03-19T01:33:53.688Z,11.40
2023-03-19T01:36:33.428Z,11.40
2023-03-19T01:39:03.972Z,11.50
2023-03-19T01:41:32.310Z,11.50
2023-03-19T01:44:28.294Z,11.50
2023-03-19T01:47:31.763Z,11.60
2023-03-19T01:50:30.691Z,11.60
2023-03-19T01:53:19.911Z,11.60
2023-03-19T01:56:15.835Z,11.60
2023-03-19T01:58:57.067Z,11.60
2023-03-19T02:02:25.358Z,11.50
2023-03-19T02:05:14.807Z,11.50
2023-03-19T02:07:45.012Z,11.50
2023-03-19T02:10:14.981Z,11.60
2023-03-19T02:12:43.150Z,11.50
2023-03-19T02:15:10.802Z,11.40
2023-03-19T02:17:40.722Z,11.50
2023-03-19T02:20:16.626Z,11.60
2023-03-19T02:22:55.209Z,11.60
2023-03-19T02:25:37.842Z,11.50
2023-03-19T02:28:05.417Z,11.50
2023-03-19T02:30:34.371Z,11.50
2023-03-19T02:33:06.441Z,11.50
2023-03-19T02:35:36.852Z,11.50
2023-03-19T02:38:06.423Z,11.40
2023-03-19T02:40:44.014Z,11.40
2023-03-19T02:43:11.293Z,11.40
2023-03-19T02:45:38.454Z,11.40
2023-03-19T02:48:05.591Z,11.40
2023-03-19T02:50:33.018Z,11.40
2023-03-19T02:53:02.716Z,11.50
2023-03-19T02:55:31.808Z,11.50
2023-03-19T02:57:58.821Z,11.50
2023-03-19T03:00:25.777Z,11.50
2023-03-19T03:02:52.950Z,11.40
2023-03-19T03:05:22.408Z,11.60
2023-03-19T03:07:51.063Z,11.60
2023-03-19T03:10:21.544Z,11.60
2023-03-19T03:12:49.084Z,11.50
2023-03-19T03:15:17.752Z,11.50
2023-03-19T03:17:46.349Z,11.40
2023-03-19T03:20:40.031Z,11.40
2023-03-19T03:23:07.535Z,11.50
2023-03-19T03:25:36.922Z,11.60
2023-03-19T03:28:05.617Z,11.50
2023-03-19T03:30:37.039Z,11.50
2023-03-19T03:33:04.473Z,11.50
2023-03-19T03:35:32.636Z,11.50
2023-03-19T03:38:00.138Z,11.50
2023-03-19T03:40:28.473Z,11.50
2023-03-19T03:42:57.959Z,11.40
2023-03-19T03:45:25.218Z,11.50
2023-03-19T03:47:53.184Z,11.50
2023-03-19T03:50:20.084Z,11.40
2023-03-19T03:52:51.677Z,11.30
2023-03-19T03:55:19.060Z,11.30
2023-03-19T03:57:46.077Z,11.20
2023-03-19T04:00:14.475Z,11.30
2023-03-19T04:02:48.440Z,11.20
2023-03-19T04:05:20.210Z,11.20
2023-03-19T04:07:48.409Z,11.10
2023-03-19T04:10:15.664Z,11.00
2023-03-19T04:12:42.670Z,10.90
2023-03-19T04:15:11.202Z,10.90
2023-03-19T04:17:41.812Z,10.90
2023-03-19T04:20:11.200Z,10.80
2023-03-19T04:22:38.688Z,10.80
2023-03-19T04:25:08.400Z,10.90
2023-03-19T04:27:37.864Z,10.90
2023-03-19T04:30:06.937Z,10.80
2023-03-19T04:32:35.878Z,10.70
2023-03-19T04:35:04.267Z,10.60
2023-03-19T04:37:31.617Z,10.60
2023-03-19T04:39:59.927Z,10.60
2023-03-19T04:42:30.138Z,10.60
2023-03-19T04:45:11.711Z,10.60
2023-03-19T04:47:45.110Z,10.60
2023-03-19T04:50:13.922Z,10.50
2023-03-19T04:52:42.759Z,10.50
2023-03-19T04:55:13.879Z,10.50
2023-03-19T04:57:51.205Z,10.50
2023-03-19T05:00:23.023Z,10.50
2023-03-19T05:02:51.344Z,10.40
2023-03-19T05:05:18.409Z,10.40
2023-03-19T05:07:46.034Z,10.30
2023-03-19T05:10:15.301Z,10.20
2023-03-19T05:12:45.878Z,10.20
2023-03-19T05:15:16.133Z,10.20
2023-03-19T05:18:06.978Z,10.10
2023-03-19T05:20:42.577Z,10.10
2023-03-19T05:23:17.990Z,10.00
2023-03-19T05:26:06.675Z,10.00
2023-03-19T05:28:52.216Z,10.00
2023-03-19T05:31:25.723Z,10.00
2023-03-19T05:33:54.450Z,9.90
2023-03-19T05:36:24.982Z,9.90
2023-03-19T05:39:10.492Z,9.90
2023-03-19T05:41:41.020Z,9.90
2023-03-19T05:44:11.455Z,9.80
2023-03-19T05:46:53.458Z,9.80
2023-03-19T05:49:29.620Z,9.80
2023-03-19T05:52:00.240Z,9.80
2023-03-19T05:54:27.378Z,9.80
2023-03-19T05:57:18.432Z,9.80
2023-03-19T06:00:06.933Z,9.80
2023-03-19T06:02:38.560Z,9.80
2023-03-19T06:05:22.341Z,9.80
2023-03-19T06:07:53.873Z,9.80
2023-03-19T06:10:54.899Z,9.80
2023-03-19T06:13:26.995Z,9.80
2023-03-19T06:15:58.528Z,9.80
2023-03-19T06:18:35.493Z,9.80
2023-03-19T06:21:09.041Z,9.90
2023-03-19T06:23:39.062Z,9.80
2023-03-19T06:26:07.805Z,9.80
2023-03-19T06:28:45.374Z,9.80
2023-03-19T06:31:13.997Z,9.80
2023-03-19T06:33:56.648Z,9.90
2023-03-19T06:36:29.874Z,9.90
2023-03-19T06:38:57.358Z,9.90
2023-03-19T06:41:27.740Z,9.80
2023-03-19T06:44:04.841Z,9.80
2023-03-19T06:46:32.637Z,9.70
2023-03-19T06:49:04.130Z,9.70
2023-03-19T06:57:03.042Z,9.60
2023-03-19T06:59:30.604Z,9.70
2023-03-19T07:02:00.512Z,9.70
2023-03-19T07:04:27.580Z,9.70
2023-03-19T07:06:54.597Z,9.70
2023-03-19T07:09:21.872Z,9.70
2023-03-19T07:11:51.024Z,9.70
2023-03-19T07:14:18.101Z,9.80
2023-03-19T07:16:48.400Z,9.80
2023-03-19T07:19:17.367Z,9.80
2023-03-19T07:21:44.781Z,9.80
2023-03-19T07:24:15.914Z,9.80
2023-03-19T07:26:45.270Z,9.80
2023-03-19T07:29:12.355Z,9.90
2023-03-19T07:31:41.398Z,9.90
2023-03-19T07:34:08.390Z,10.00
2023-03-19T07:36:42.222Z,10.00
2023-03-19T07:39:09.148Z,10.10
2023-03-19T07:41:41.203Z,10.00
2023-03-19T07:44:14.585Z,10.10
2023-03-19T07:46:46.827Z,10.20
2023-03-19T07:49:15.570Z,10.20
2023-03-19T07:51:47.258Z,10.10
2023-03-19T07:54:17.120Z,10.20
2023-03-19T07:56:44.401Z,10.30
2023-03-19T07:59:14.408Z,10.40
2023-03-19T08:04:25.244Z,10.70
2023-03-19T08:06:53.998Z,10.80
2023-03-19T08:09:21.150Z,11.10
2023-03-19T08:11:51.302Z,11.20
2023-03-19T08:14:23.364Z,11.50
2023-03-19T08:16:50.924Z,11.80
2023-03-19T08:19:18.787Z,11.80
2023-03-19T08:27:37.887Z,11.40
2023-03-19T08:33:20.875Z,11.40
2023-03-19T08:35:48.282Z,11.40
2023-03-19T08:38:18.886Z,11.40
2023-03-19T08:40:51.428Z,11.60
2023-03-19T08:43:19.446Z,11.60
2023-03-19T08:45:50.233Z,11.80
2023-03-19T08:48:22.489Z,11.90
2023-03-19T08:50:56.418Z,11.90
2023-03-19T08:53:25.445Z,11.80
2023-03-19T08:55:55.136Z,11.90
2023-03-19T08:58:24.113Z,11.90
2023-03-19T09:03:50.342Z,12.00
2023-03-19T09:06:19.705Z,12.00
2023-03-19T09:08:51.480Z,12.00
2023-03-19T09:11:19.893Z,12.00
2023-03-19T09:13:50.481Z,12.00
2023-03-19T09:16:26.622Z,12.00
2023-03-19T09:18:56.697Z,12.20
2023-03-19T09:21:26.331Z,12.20
2023-03-19T09:23:53.704Z,12.40
2023-03-19T09:26:23.555Z,12.50
2023-03-19T09:28:52.241Z,12.50
2023-03-19T09:34:03.930Z,12.90
2023-03-19T09:37:29.750Z,13.00
2023-03-19T09:39:59.278Z,13.00
2023-03-19T09:46:50.419Z,12.40
2023-03-19T09:49:29.536Z,12.30
2023-03-19T09:52:18.184Z,12.20
2023-03-19T09:54:50.086Z,12.30
2023-03-19T09:57:18.264Z,12.40
2023-03-19T10:03:47.842Z,12.50
2023-03-19T10:06:40.282Z,12.70
2023-03-19T10:09:36.577Z,12.80
2023-03-19T10:12:09.821Z,12.90
2023-03-19T10:14:51.949Z,13.10
2023-03-19T10:17:27.133Z,13.00
2023-03-19T10:20:35.324Z,13.00
2023-03-19T10:23:33.881Z,13.00
2023-03-19T10:26:06.120Z,12.90
2023-03-19T10:28:35.093Z,12.90
2023-03-19T10:31:39.832Z,13.00
2023-03-19T10:34:33.422Z,12.90
2023-03-19T10:37:13.142Z,13.10
2023-03-19T10:39:45.462Z,13.00
2023-03-19T10:45:40.928Z,13.00
2023-03-19T10:48:18.104Z,13.00
2023-03-19T10:51:02.409Z,12.90
2023-03-19T10:53:39.950Z,13.00
2023-03-19T10:56:09.914Z,13.00
2023-03-19T10:58:38.079Z,12.90
2023-03-19T11:01:07.605Z,12.80
2023-03-19T11:03:58.872Z,12.90
2023-03-19T11:06:36.645Z,12.80
2023-03-19T11:12:27.381Z,12.80
2023-03-19T11:14:59.097Z,13.00
2023-03-19T11:17:28.977Z,13.20
2023-03-19T11:20:08.724Z,13.30
2023-03-19T11:22:39.853Z,13.30
2023-03-19T11:29:43.483Z,13.20
2023-03-19T11:32:41.098Z,13.20
2023-03-19T11:35:35.033Z,13.40
2023-03-19T11:38:06.036Z,13.50
2023-03-19T11:40:47.342Z,13.70
2023-03-19T11:43:38.350Z,13.80
2023-03-19T11:46:36.943Z,13.70
2023-03-19T11:49:28.506Z,13.60
2023-03-19T11:52:08.336Z,13.70
2023-03-19T11:54:41.035Z,13.70
2023-03-19T11:57:11.573Z,13.30
2023-03-19T11:59:38.879Z,13.50
2023-03-19T12:02:30.729Z,13.50
2023-03-19T12:05:33.638Z,13.60
2023-03-19T12:08:28.956Z,13.60
2023-03-19T12:11:22.632Z,13.80
2023-03-19T12:14:28.562Z,13.90
2023-03-19T12:17:34.797Z,13.70
2023-03-19T12:20:35.159Z,13.70
2023-03-19T12:23:45.469Z,13.90
2023-03-19T12:26:46.797Z,14.00
2023-03-19T12:29:51.533Z,14.10
2023-03-19T12:32:58.825Z,14.60
2023-03-19T12:35:56.405Z,15.00
2023-03-19T12:38:46.872Z,15.20
2023-03-19T12:54:54.729Z,14.90
2023-03-19T12:57:49.472Z,15.80
2023-03-19T13:00:47.149Z,17.20
2023-03-19T13:03:20.959Z,18.00
2023-03-19T13:06:02.528Z,17.50
2023-03-19T13:08:50.050Z,17.10
2023-03-19T13:14:37.432Z,16.20
2023-03-19T13:17:42.274Z,15.70
2023-03-19T13:20:32.698Z,15.40
2023-03-19T13:25:52.698Z,14.80
2023-03-19T13:29:19.385Z,14.60
2023-03-19T13:31:47.954Z,14.80
2023-03-19T13:34:18.406Z,14.60
2023-03-19T13:39:40.057Z,15.20
2023-03-19T13:42:10.141Z,15.90
2023-03-19T13:45:04.638Z,16.00
2023-03-19T13:47:37.630Z,16.00
2023-03-19T13:50:26.518Z,15.80
2023-03-19T13:53:31.644Z,15.70
2023-03-19T13:56:05.735Z,15.40
2023-03-19T13:59:17.197Z,15.20
2023-03-19T14:01:51.449Z,15.40
2023-03-19T14:04:26.419Z,15.20
2023-03-19T14:07:19.401Z,15.10
2023-03-19T14:10:41.064Z,14.90
2023-03-19T14:13:26.697Z,14.90
2023-03-19T14:18:48.422Z,14.30
2023-03-19T14:25:25.293Z,14.00
2023-03-19T14:28:02.590Z,13.80
2023-03-19T14:30:39.235Z,13.70
2023-03-19T14:33:49.216Z,13.70
2023-03-19T14:45:45.327Z,13.60
2023-03-19T14:48:50.597Z,13.80
2023-03-19T14:52:20.421Z,13.90
2023-03-19T14:58:01.642Z,13.80
2023-03-19T15:03:42.770Z,13.50
2023-03-19T15:09:38.619Z,13.60
2023-03-19T15:12:41.730Z,13.70
2023-03-19T15:15:46.824Z,13.80
2023-03-19T15:18:33.079Z,13.70
2023-03-19T15:21:57.994Z,13.70
2023-03-19T15:24:54.629Z,13.50
2023-03-19T15:27:47.241Z,13.20
2023-03-19T15:30:30.483Z,12.90
2023-03-19T15:33:14.034Z,12.60
2023-03-19T15:35:59.277Z,12.40
2023-03-19T15:38:34.730Z,12.40
2023-03-19T15:41:10.628Z,12.30
2023-03-19T15:43:46.786Z,12.30
2023-03-19T15:49:32.973Z,12.20
2023-03-19T15:54:52.091Z,12.10
2023-03-19T15:57:20.412Z,12.20
2023-03-19T15:59:56.575Z,12.20
2023-03-19T16:05:35.826Z,11.90
2023-03-19T16:18:16.440Z,11.80
2023-03-19T16:20:51.668Z,11.80
2023-03-19T16:26:20.835Z,11.70
2023-03-19T16:29:06.207Z,11.60
2023-03-19T16:34:46.725Z,11.50
2023-03-19T16:37:40.625Z,11.50
2023-03-19T16:40:25.862Z,11.40
2023-03-19T16:42:56.467Z,11.40
2023-03-19T16:45:32.068Z,11.30
2023-03-19T16:48:05.325Z,11.20
2023-03-19T16:50:37.308Z,11.20
2023-03-19T16:53:11.289Z,11.00
2023-03-19T16:55:44.916Z,10.90
2023-03-19T16:58:21.598Z,10.80
2023-03-19T17:00:54.181Z,10.80
2023-03-19T17:03:21.249Z,10.80
2023-03-19T17:05:49.787Z,10.80
2023-03-19T17:08:17.278Z,10.80
2023-03-19T17:10:50.852Z,10.70
2023-03-19T17:13:28.794Z,10.80
2023-03-19T17:16:04.498Z,10.80
2023-03-19T17:18:38.430Z,10.90
2023-03-19T17:21:18.130Z,10.70
2023-03-19T17:23:52.266Z,10.80
2023-03-19T17:26:26.782Z,10.70
2023-03-19T17:28:55.581Z,10.60
2023-03-19T17:31:29.125Z,10.60
2023-03-19T17:34:16.971Z,10.70
2023-03-19T17:36:56.768Z,10.60
2023-03-19T17:39:25.447Z,10.60
2023-03-19T17:41:54.098Z,10.50
2023-03-19T17:44:24.052Z,10.50
2023-03-19T17:46:55.099Z,10.50
2023-03-19T17:49:34.659Z,10.60
2023-03-19T17:52:06.100Z,10.70
2023-03-19T17:54:47.716Z,10.70
2023-03-19T17:57:17.606Z,10.60
2023-03-19T18:00:13.099Z,10.60
2023-03-19T18:03:26.588Z,10.60
2023-03-19T18:06:39.476Z,10.70
2023-03-19T18:10:01.777Z,10.70
2023-03-19T18:12:38.892Z,10.50
2023-03-19T18:15:26.473Z,10.50
2023-03-19T18:18:02.564Z,10.50
2023-03-19T18:28:51.858Z,10.80
2023-03-19T18:31:24.422Z,10.70
2023-03-19T18:34:01.487Z,10.60
2023-03-19T18:36:45.317Z,10.50
2023-03-19T18:39:15.256Z,10.40
2023-03-19T18:41:44.362Z,10.40
2023-03-19T18:44:19.846Z,10.50
2023-03-19T18:46:47.355Z,10.50
2023-03-19T18:49:26.589Z,10.30
2023-03-19T18:55:12.893Z,10.30
2023-03-19T18:58:04.133Z,10.20
2023-03-19T19:00:40.644Z,10.20
2023-03-19T19:03:14.432Z,10.20
2023-03-19T19:05:42.565Z,10.30
2023-03-19T19:08:20.547Z,10.40
2023-03-19T19:10:59.342Z,10.50
2023-03-19T19:13:30.479Z,10.60
2023-03-19T19:15:59.336Z,10.50
2023-03-19T19:18:45.006Z,10.50
2023-03-19T19:21:41.685Z,10.40
2023-03-19T19:24:39.765Z,10.50
2023-03-19T19:27:39.475Z,10.50
2023-03-19T19:30:25.265Z,10.60
2023-03-19T19:33:10.498Z,10.60
2023-03-19T19:35:57.354Z,10.40
2023-03-19T19:38:42.519Z,10.30
2023-03-19T19:41:32.208Z,10.30
2023-03-19T19:44:08.471Z,10.30
2023-03-19T19:47:12.068Z,10.20
2023-03-19T19:49:48.147Z,10.20
2023-03-19T19:52:41.872Z,10.30
2023-03-19T19:55:48.586Z,10.20
2023-03-19T19:58:37.263Z,10.10
2023-03-19T20:01:37.413Z,9.90
2023-03-19T20:04:06.318Z,9.80
2023-03-19T20:06:38.504Z,9.80
2023-03-19T20:09:11.371Z,9.90
2023-03-19T20:11:44.590Z,9.90
2023-03-19T20:14:13.886Z,9.90
2023-03-19T20:16:51.486Z,10.00
2023-03-19T20:19:20.328Z,9.90
2023-03-19T20:21:55.362Z,9.80
2023-03-19T20:24:28.589Z,9.80
2023-03-19T20:27:25.759Z,9.70
2023-03-19T20:29:58.954Z,9.70
2023-03-19T20:32:32.753Z,9.60
2023-03-19T20:35:01.705Z,9.50
2023-03-19T20:37:31.952Z,9.40
2023-03-19T20:40:00.248Z,9.40
2023-03-19T20:42:30.378Z,9.40
2023-03-19T20:44:58.878Z,9.40
2023-03-19T20:47:26.157Z,9.30
2023-03-19T20:49:53.505Z,9.30
2023-03-19T20:52:22.987Z,9.40
2023-03-19T20:54:50.209Z,9.30
2023-03-19T20:57:23.892Z,9.30
2023-03-19T20:59:54.890Z,9.30
2023-03-19T21:02:28.750Z,9.40
2023-03-19T21:04:58.724Z,9.50
2023-03-19T21:07:36.324Z,9.40
2023-03-19T21:10:27.070Z,9.30
2023-03-19T21:12:56.608Z,9.30
2023-03-19T21:15:27.153Z,9.40
2023-03-19T21:17:58.769Z,9.50
2023-03-19T21:20:32.106Z,9.50
2023-03-19T21:23:20.814Z,9.30
2023-03-19T21:25:50.253Z,9.30
2023-03-19T21:28:23.615Z,9.20
2023-03-19T21:30:50.676Z,9.10
2023-03-19T21:33:25.472Z,9.10
2023-03-19T21:38:42.528Z,9.30
2023-03-19T21:44:18.737Z,9.10
2023-03-19T21:46:48.086Z,9.00
2023-03-19T21:49:19.053Z,9.00
2023-03-19T21:51:47.920Z,9.00
2023-03-19T21:54:18.405Z,8.90
2023-03-19T21:56:50.996Z,8.90
2023-03-19T21:59:28.172Z,8.90
2023-03-19T22:01:57.400Z,8.80
2023-03-19T22:04:26.948Z,8.80
2023-03-19T22:06:59.834Z,8.70
2023-03-19T22:09:27.261Z,8.70
2023-03-19T22:11:56.191Z,8.70
2023-03-19T22:14:28.165Z,8.70
2023-03-19T22:16:56.669Z,8.60
2023-03-19T22:19:25.454Z,8.50
2023-03-19T22:22:02.518Z,8.40
2023-03-19T22:24:29.636Z,8.20
2023-03-19T22:27:06.952Z,8.20
2023-03-19T22:29:41.095Z,8.10
2023-03-19T22:32:21.479Z,8.00
2023-03-19T22:34:48.834Z,8.00
2023-03-19T22:37:30.946Z,7.90
2023-03-19T22:39:58.191Z,7.90
2023-03-19T22:42:27.498Z,7.90
2023-03-19T22:45:04.356Z,7.80
2023-03-19T22:47:38.219Z,7.80
2023-03-19T22:50:24.904Z,7.70
2023-03-19T22:52:55.915Z,7.80
2023-03-19T22:55:26.181Z,7.80
2023-03-19T22:57:55.035Z,7.90
2023-03-19T23:00:23.865Z,7.90
2023-03-19T23:02:57.516Z,8.00
2023-03-19T23:05:29.930Z,8.00
2023-03-19T23:07:58.505Z,8.00
2023-03-19T23:10:35.644Z,7.90
2023-03-19T23:13:03.081Z,7.90
2023-03-19T23:15:31.587Z,8.00
2023-03-19T23:18:01.221Z,8.00
2023-03-19T23:20:32.687Z,7.90
2023-03-19T23:23:00.151Z,7.80
2023-03-19T23:25:29.303Z,7.70
2023-03-19T23:28:02.534Z,7.70
2023-03-19T23:30:33.810Z,7.70
2023-03-19T23:33:03.294Z,7.70
2023-03-19T23:35:35.545Z,7.50
2023-03-19T23:38:03.306Z,7.50
2023-03-19T23:40:33.205Z,7.50
2023-03-19T23:43:03.683Z,7.40
2023-03-19T23:45:37.874Z,7.40
2023-03-19T23:48:16.876Z,7.30
2023-03-19T23:50:46.896Z,7.30
2023-03-19T23:53:30.542Z,7.30
2023-03-19T23:56:03.753Z,7.30
2023-03-19T23:58:43.392Z,7.20
